createdAt,value
2018-06-05T00:00:55.837Z,21.50
2018-06-05T00:03:22.714Z,21.50
2018-06-05T00:05:50.509Z,21.40
2018-06-05T00:08:17.390Z,21.40
2018-06-05T00:10:44.299Z,21.40
2018-06-05T00:13:11.347Z,21.50
2018-06-05T00:15:38.286Z,21.40
2018-06-05T00:18:05.228Z,21.30
2018-06-05T00:20:32.209Z,21.40
2018-06-05T00:22:59.100Z,21.30
2018-06-05T00:25:26.874Z,21.30
2018-06-05T00:27:53.775Z,21.30
2018-06-05T00:30:20.779Z,21.30
2018-06-05T00:32:47.735Z,21.20
2018-06-05T00:35:14.808Z,21.30
2018-06-05T00:37:41.824Z,21.30
2018-06-05T00:40:08.693Z,21.20
2018-06-05T00:42:35.636Z,21.20
2018-06-05T00:45:02.619Z,21.10
2018-06-05T00:47:29.566Z,21.10
2018-06-05T00:49:56.511Z,21.00
2018-06-05T00:52:23.494Z,21.00
2018-06-05T00:54:50.469Z,21.00
2018-06-05T00:57:17.458Z,21.00
2018-06-05T00:59:44.354Z,20.90
2018-06-05T01:02:11.338Z,20.90
2018-06-05T01:04:38.249Z,20.90
2018-06-05T01:07:05.121Z,20.80
2018-06-05T01:09:32.061Z,20.80
2018-06-05T01:11:59.109Z,20.80
2018-06-05T01:14:26.067Z,20.70
2018-06-05T01:16:52.966Z,20.80
2018-06-05T01:19:19.966Z,20.70
2018-06-05T01:21:47.599Z,20.80
2018-06-05T01:24:14.595Z,20.70
2018-06-05T01:26:42.281Z,20.70
2018-06-05T01:29:09.215Z,20.60
2018-06-05T01:31:36.874Z,20.70
2018-06-05T01:34:04.555Z,20.80
2018-06-05T01:36:31.513Z,20.80
2018-06-05T01:38:58.532Z,20.80
2018-06-05T01:41:26.196Z,20.60
2018-06-05T01:43:53.887Z,20.60
2018-06-05T01:46:20.909Z,20.50
2018-06-05T01:48:47.853Z,20.50
2018-06-05T01:51:15.513Z,20.50
2018-06-05T01:53:42.461Z,20.40
2018-06-05T01:56:10.293Z,20.50
2018-06-05T01:58:37.147Z,20.50
2018-06-05T02:01:04.035Z,20.40
2018-06-05T02:03:30.988Z,20.30
2018-06-05T02:05:57.910Z,20.40
2018-06-05T02:08:24.849Z,20.30
2018-06-05T02:10:52.472Z,20.10
2018-06-05T02:13:19.359Z,20.10
2018-06-05T02:15:47.082Z,20.20
2018-06-05T02:18:13.963Z,20.10
2018-06-05T02:20:41.660Z,20.20
2018-06-05T02:23:08.540Z,20.20
2018-06-05T02:25:35.458Z,20.10
2018-06-05T02:28:02.439Z,20.10
2018-06-05T02:30:29.320Z,20.10
2018-06-05T02:32:56.292Z,20.00
2018-06-05T02:35:23.202Z,20.00
2018-06-05T02:37:50.921Z,20.00
2018-06-05T02:40:17.786Z,19.90
2018-06-05T02:42:44.681Z,20.00
2018-06-05T02:45:11.623Z,19.80
2018-06-05T02:47:38.518Z,19.80
2018-06-05T02:50:05.486Z,19.70
2018-06-05T02:52:33.099Z,19.70
2018-06-05T02:55:00.025Z,19.70
2018-06-05T02:57:27.045Z,19.60
2018-06-05T02:59:54.653Z,19.60
2018-06-05T03:02:21.520Z,19.60
2018-06-05T03:04:48.463Z,19.50
2018-06-05T03:07:15.413Z,19.60
2018-06-05T03:09:43.216Z,19.50
2018-06-05T03:12:10.831Z,19.50
2018-06-05T03:14:37.796Z,19.50
2018-06-05T03:17:04.825Z,19.50
2018-06-05T03:19:31.726Z,19.50
2018-06-05T03:21:58.701Z,19.50
2018-06-05T03:24:25.642Z,19.50
2018-06-05T03:26:52.625Z,19.40
2018-06-05T03:29:19.520Z,19.40
2018-06-05T03:31:46.440Z,19.40
2018-06-05T03:34:14.185Z,19.50
2018-06-05T03:36:41.071Z,19.50
2018-06-05T03:39:08.048Z,19.50
2018-06-05T03:41:34.929Z,19.40
2018-06-05T03:44:01.863Z,19.40
2018-06-05T03:46:28.899Z,19.40
2018-06-05T03:48:55.821Z,19.40
2018-06-05T03:51:22.700Z,19.40
2018-06-05T03:53:49.624Z,19.40
2018-06-05T03:56:16.592Z,19.50
2018-06-05T03:58:43.467Z,19.50
2018-06-05T04:01:11.162Z,19.50
2018-06-05T04:03:38.041Z,19.50
2018-06-05T04:06:04.981Z,19.50
2018-06-05T04:08:31.925Z,19.50
2018-06-05T04:10:58.878Z,19.50
2018-06-05T04:13:25.748Z,19.50
2018-06-05T04:15:53.437Z,19.50
2018-06-05T04:18:20.720Z,19.50
2018-06-05T04:20:48.452Z,19.50
2018-06-05T04:23:15.396Z,19.50
2018-06-05T04:25:44.583Z,19.60
2018-06-05T04:28:11.497Z,19.60
2018-06-05T04:30:38.458Z,19.80
2018-06-05T04:33:06.093Z,21.50
2018-06-05T04:35:33.208Z,21.50
2018-06-05T04:38:00.336Z,21.50
2018-06-05T04:40:27.210Z,21.90
2018-06-05T04:42:54.161Z,22.50
2018-06-05T04:45:21.056Z,22.90
2018-06-05T04:47:48.077Z,23.40
2018-06-05T04:50:14.948Z,23.00
2018-06-05T04:52:41.828Z,23.50
2018-06-05T04:55:08.799Z,24.60
2018-06-05T04:57:36.114Z,25.40
2018-06-05T05:00:03.450Z,25.80
2018-06-05T05:02:31.068Z,27.10
2018-06-05T05:04:58.022Z,27.10
2018-06-05T05:07:24.956Z,28.40
2018-06-05T05:09:53.690Z,28.70
2018-06-05T05:12:25.007Z,28.40
2018-06-05T05:14:52.420Z,29.70
2018-06-05T05:17:20.667Z,29.90
2018-06-05T05:19:47.640Z,29.40
2018-06-05T05:22:15.414Z,30.80
2018-06-05T05:24:42.481Z,30.80
2018-06-05T05:27:10.332Z,30.10
2018-06-05T05:29:39.084Z,30.30
2018-06-05T05:32:05.981Z,28.60
2018-06-05T05:34:43.234Z,27.10
2018-06-05T05:37:10.355Z,26.40
2018-06-05T05:39:44.793Z,25.70
2018-06-05T05:42:11.746Z,24.90
2018-06-05T05:44:40.958Z,24.20
2018-06-05T05:47:11.523Z,24.00
2018-06-05T05:49:38.666Z,24.00
2018-06-05T05:52:07.190Z,23.90
2018-06-05T05:54:37.025Z,23.70
2018-06-05T05:57:04.770Z,24.00
2018-06-05T05:59:31.633Z,24.00
2018-06-05T06:01:58.655Z,24.80
2018-06-05T06:04:25.530Z,24.90
2018-06-05T06:06:52.419Z,24.40
2018-06-05T06:09:19.404Z,23.90
2018-06-05T06:11:46.277Z,23.40
2018-06-05T06:14:13.961Z,23.20
2018-06-05T06:16:40.886Z,23.10
2018-06-05T06:19:08.557Z,22.80
2018-06-05T06:21:36.144Z,22.80
2018-06-05T06:24:03.198Z,22.80
2018-06-05T06:26:30.073Z,22.90
2018-06-05T06:28:56.979Z,22.80
2018-06-05T06:31:23.960Z,23.00
2018-06-05T06:33:50.906Z,23.20
2018-06-05T06:36:17.813Z,23.00
2018-06-05T06:38:44.767Z,23.10
2018-06-05T06:41:11.774Z,23.10
2018-06-05T06:43:39.853Z,23.10
2018-06-05T06:46:06.890Z,23.00
2018-06-05T06:48:33.771Z,23.00
2018-06-05T06:51:00.655Z,23.10
2018-06-05T06:53:27.592Z,23.40
2018-06-05T06:55:54.493Z,23.40
2018-06-05T06:58:22.086Z,23.40
2018-06-05T07:00:49.338Z,23.60
2018-06-05T07:03:16.370Z,23.50
2018-06-05T07:05:43.241Z,23.50
2018-06-05T07:08:10.190Z,23.10
2018-06-05T07:10:37.091Z,23.30
2018-06-05T07:13:04.056Z,23.20
2018-06-05T07:15:31.026Z,23.10
2018-06-05T07:17:57.998Z,23.30
2018-06-05T07:20:25.730Z,23.50
2018-06-05T07:22:52.746Z,23.50
2018-06-05T07:25:19.620Z,23.60
2018-06-05T07:27:46.594Z,23.80
2018-06-05T07:30:13.506Z,24.00
2018-06-05T07:32:40.501Z,23.90
2018-06-05T07:35:08.197Z,24.10
2018-06-05T07:37:35.246Z,24.20
2018-06-05T07:40:02.183Z,24.00
2018-06-05T07:42:29.164Z,23.20
2018-06-05T07:44:56.081Z,24.20
2018-06-05T07:47:23.034Z,24.40
2018-06-05T07:49:50.068Z,25.30
2018-06-05T07:52:19.247Z,28.30
2018-06-05T07:54:46.253Z,27.10
2018-06-05T07:57:13.201Z,26.50
2018-06-05T07:59:40.189Z,26.60
2018-06-05T08:02:07.806Z,26.40
2018-06-05T08:04:34.748Z,26.40
2018-06-05T08:07:01.643Z,26.60
2018-06-05T08:09:28.528Z,26.70
2018-06-05T08:11:55.532Z,26.50
2018-06-05T08:14:23.201Z,26.60
2018-06-05T08:16:50.853Z,29.20
2018-06-05T08:19:17.806Z,29.20
2018-06-05T08:21:44.738Z,29.70
2018-06-05T08:24:11.889Z,30.80
2018-06-05T08:26:38.864Z,31.40
2018-06-05T08:29:06.629Z,32.00
2018-06-05T08:31:34.276Z,33.00
2018-06-05T08:34:01.925Z,33.90
2018-06-05T08:36:28.972Z,33.80
2018-06-05T08:38:55.946Z,33.60
2018-06-05T08:41:23.581Z,30.90
2018-06-05T08:43:51.475Z,32.10
2018-06-05T08:46:18.500Z,32.10
2018-06-05T08:48:45.496Z,32.60
2018-06-05T08:51:13.043Z,32.10
2018-06-05T08:53:40.772Z,32.10
2018-06-05T08:56:07.796Z,32.10
2018-06-05T08:58:34.770Z,31.60
2018-06-05T09:01:02.582Z,32.10
2018-06-05T09:03:29.466Z,32.10
2018-06-05T09:05:56.389Z,31.50
2018-06-05T09:08:23.389Z,31.30
2018-06-05T09:10:50.321Z,31.20
2018-06-05T09:13:17.342Z,31.00
2018-06-05T09:15:44.306Z,31.10
2018-06-05T09:18:11.312Z,31.30
2018-06-05T09:20:38.234Z,31.50
2018-06-05T09:23:05.269Z,30.80
2018-06-05T09:25:32.209Z,30.90
2018-06-05T09:27:59.102Z,31.20
2018-06-05T09:30:33.082Z,31.50
2018-06-05T09:32:59.970Z,31.80
2018-06-05T09:35:26.942Z,31.80
2018-06-05T09:37:53.904Z,32.30
2018-06-05T09:40:20.813Z,32.20
2018-06-05T09:42:47.697Z,31.00
2018-06-05T09:45:14.649Z,31.80
2018-06-05T09:47:41.553Z,31.90
2018-06-05T09:50:08.538Z,31.90
2018-06-05T09:52:35.424Z,32.30
2018-06-05T09:55:02.389Z,32.00
2018-06-05T09:57:29.344Z,32.20
2018-06-05T09:59:56.345Z,32.00
2018-06-05T10:02:23.299Z,32.10
2018-06-05T10:04:50.237Z,32.40
2018-06-05T10:07:17.213Z,31.50
2018-06-05T10:09:44.163Z,31.90
2018-06-05T10:12:11.123Z,31.60
2018-06-05T10:14:38.045Z,31.30
2018-06-05T10:17:05.094Z,31.70
2018-06-05T10:19:32.000Z,31.60
2018-06-05T10:21:58.941Z,31.70
2018-06-05T10:24:26.636Z,31.10
2018-06-05T10:26:53.587Z,31.20
2018-06-05T10:29:20.627Z,30.40
2018-06-05T10:31:47.524Z,29.50
2018-06-05T10:34:14.413Z,30.60
2018-06-05T10:36:41.418Z,30.10
2018-06-05T10:39:08.331Z,30.40
2018-06-05T10:41:35.301Z,31.00
2018-06-05T10:44:02.353Z,31.30
2018-06-05T10:46:29.938Z,31.50
2018-06-05T10:49:08.291Z,31.40
2018-06-05T10:51:35.184Z,31.10
2018-06-05T10:54:03.387Z,30.70
2018-06-05T10:56:31.347Z,31.30
2018-06-05T10:59:06.467Z,31.40
2018-06-05T11:01:33.790Z,31.40
2018-06-05T11:04:05.333Z,30.60
2018-06-05T11:06:32.338Z,30.30
2018-06-05T11:09:00.048Z,31.20
2018-06-05T11:11:27.031Z,31.30
2018-06-05T11:14:04.597Z,31.30
2018-06-05T11:16:37.177Z,31.10
2018-06-05T11:19:04.317Z,31.00
2018-06-05T11:21:31.412Z,31.60
2018-06-05T11:23:59.037Z,31.40
2018-06-05T11:26:26.014Z,31.30
2018-06-05T11:28:52.986Z,31.10
2018-06-05T11:31:20.722Z,31.50
2018-06-05T11:33:49.040Z,31.50
2018-06-05T11:36:19.513Z,31.20
2018-06-05T11:38:48.052Z,31.20
2018-06-05T11:41:17.189Z,31.00
2018-06-05T11:43:46.961Z,31.00
2018-06-05T11:46:14.626Z,31.00
2018-06-05T11:48:53.160Z,31.00
2018-06-05T11:51:22.266Z,31.00
2018-06-05T11:53:50.140Z,31.00
2018-06-05T11:56:18.186Z,30.90
2018-06-05T11:58:45.354Z,31.00
2018-06-05T12:01:12.315Z,31.10
2018-06-05T12:03:40.173Z,31.30
2018-06-05T12:06:07.509Z,31.30
2018-06-05T12:08:35.029Z,31.30
2018-06-05T12:11:02.606Z,31.40
2018-06-05T12:13:31.389Z,31.10
2018-06-05T12:15:59.686Z,31.40
2018-06-05T12:18:31.640Z,31.50
2018-06-05T12:21:00.316Z,31.20
2018-06-05T12:23:27.949Z,31.60
2018-06-05T12:25:54.908Z,31.60
2018-06-05T12:28:21.894Z,30.30
2018-06-05T12:30:48.803Z,30.70
2018-06-05T12:33:15.788Z,31.10
2018-06-05T12:35:42.697Z,31.00
2018-06-05T12:38:09.702Z,31.30
2018-06-05T12:40:36.673Z,31.20
2018-06-05T12:43:03.599Z,31.20
2018-06-05T12:45:30.566Z,31.50
2018-06-05T12:47:57.737Z,31.50
2018-06-05T12:50:25.452Z,31.20
2018-06-05T12:52:52.461Z,31.20
2018-06-05T12:55:20.187Z,30.10
2018-06-05T12:57:47.099Z,30.00
2018-06-05T13:00:14.065Z,30.50
2018-06-05T13:02:41.028Z,30.50
2018-06-05T13:05:08.070Z,30.70
2018-06-05T13:07:35.033Z,31.00
2018-06-05T13:10:01.938Z,31.00
2018-06-05T13:12:28.944Z,30.60
2018-06-05T13:14:58.268Z,30.50
2018-06-05T13:17:26.100Z,30.60
2018-06-05T13:19:55.023Z,30.70
2018-06-05T13:22:22.714Z,30.40
2018-06-05T13:24:50.637Z,30.40
2018-06-05T13:27:17.804Z,30.40
2018-06-05T13:29:48.138Z,30.10
2018-06-05T13:32:15.421Z,30.10
2018-06-05T13:34:44.062Z,30.10
2018-06-05T13:37:13.078Z,30.10
2018-06-05T13:39:40.739Z,30.40
2018-06-05T13:42:07.906Z,30.70
2018-06-05T13:44:35.473Z,30.40
2018-06-05T13:47:05.573Z,30.60
2018-06-05T13:49:32.584Z,30.10
2018-06-05T13:52:00.637Z,30.20
2018-06-05T13:54:27.517Z,30.20
2018-06-05T13:56:54.565Z,30.30
2018-06-05T13:59:22.660Z,30.40
2018-06-05T14:01:50.122Z,30.20
2018-06-05T14:04:17.317Z,30.30
2018-06-05T14:06:44.324Z,30.40
2018-06-05T14:09:11.334Z,30.50
2018-06-05T14:11:40.394Z,30.40
2018-06-05T14:14:07.269Z,30.40
2018-06-05T14:16:35.241Z,30.30
2018-06-05T14:19:03.892Z,30.30
2018-06-05T14:21:31.651Z,30.40
2018-06-05T14:23:58.753Z,30.40
2018-06-05T14:26:25.683Z,30.60
2018-06-05T14:28:53.185Z,30.40
2018-06-05T14:31:21.774Z,30.50
2018-06-05T14:33:48.841Z,30.70
2018-06-05T14:36:15.755Z,30.60
2018-06-05T14:38:42.731Z,30.60
2018-06-05T14:41:09.673Z,30.40
2018-06-05T14:43:37.025Z,30.40
2018-06-05T14:46:03.970Z,30.50
2018-06-05T14:48:30.937Z,30.50
2018-06-05T14:50:57.824Z,30.50
2018-06-05T14:53:27.770Z,30.60
2018-06-05T14:56:03.916Z,30.50
2018-06-05T14:58:31.017Z,30.60
2018-06-05T15:00:57.925Z,30.50
2018-06-05T15:03:24.917Z,30.40
2018-06-05T15:05:51.884Z,30.30
2018-06-05T15:08:19.558Z,30.30
2018-06-05T15:10:47.597Z,29.90
2018-06-05T15:13:16.121Z,29.90
2018-06-05T15:15:46.379Z,29.70
2018-06-05T15:18:13.935Z,29.70
2018-06-05T15:20:41.887Z,29.80
2018-06-05T15:23:09.275Z,30.00
2018-06-05T15:25:36.485Z,29.90
2018-06-05T15:28:03.483Z,29.90
2018-06-05T15:30:30.445Z,29.70
2018-06-05T15:32:57.348Z,29.70
2018-06-05T15:35:24.409Z,29.70
2018-06-05T15:37:51.348Z,29.60
2018-06-05T15:40:21.101Z,29.70
2018-06-05T15:42:48.288Z,29.50
2018-06-05T15:45:15.886Z,29.60
2018-06-05T15:47:42.939Z,29.60
2018-06-05T15:50:10.802Z,29.60
2018-06-05T15:52:37.988Z,29.40
2018-06-05T15:55:10.826Z,29.50
2018-06-05T15:57:39.117Z,29.10
2018-06-05T16:00:06.176Z,29.20
2018-06-05T16:02:33.161Z,29.40
2018-06-05T16:05:00.202Z,29.50
2018-06-05T16:07:28.916Z,29.60
2018-06-05T16:09:55.902Z,29.50
2018-06-05T16:12:22.911Z,29.50
2018-06-05T16:14:49.980Z,29.50
2018-06-05T16:17:16.866Z,29.50
2018-06-05T16:19:46.707Z,29.30
2018-06-05T16:22:14.037Z,29.10
2018-06-05T16:24:43.776Z,29.30
2018-06-05T16:27:10.715Z,29.10
2018-06-05T16:29:38.441Z,29.30
2018-06-05T16:32:05.831Z,29.30
2018-06-05T16:34:32.892Z,29.40
2018-06-05T16:37:00.389Z,29.20
2018-06-05T16:39:28.425Z,29.10
2018-06-05T16:41:57.323Z,29.40
2018-06-05T16:44:26.693Z,29.40
2018-06-05T16:46:53.744Z,29.40
2018-06-05T16:49:23.767Z,29.40
2018-06-05T16:51:50.855Z,29.30
2018-06-05T16:54:17.758Z,29.30
2018-06-05T16:56:44.769Z,29.40
2018-06-05T16:59:14.413Z,29.20
2018-06-05T17:01:41.329Z,29.40
2018-06-05T17:04:08.334Z,29.30
2018-06-05T17:06:35.311Z,29.40
2018-06-05T17:09:02.362Z,29.40
2018-06-05T17:11:29.466Z,29.40
2018-06-05T17:13:57.130Z,29.30
2018-06-05T17:16:24.132Z,29.30
2018-06-05T17:18:51.165Z,29.30
2018-06-05T17:21:18.106Z,29.10
2018-06-05T17:24:02.125Z,28.90
2018-06-05T17:26:30.122Z,28.80
2018-06-05T17:28:57.021Z,28.80
2018-06-05T17:31:23.997Z,29.00
2018-06-05T17:33:50.992Z,28.90
2018-06-05T17:36:17.894Z,29.00
2018-06-05T17:38:44.847Z,29.00
2018-06-05T17:41:13.003Z,28.70
2018-06-05T17:43:41.279Z,28.60
2018-06-05T17:46:13.787Z,28.50
2018-06-05T17:48:42.269Z,28.50
2018-06-05T17:51:10.110Z,28.60
2018-06-05T17:53:38.789Z,28.50
2018-06-05T17:56:07.581Z,28.60
2018-06-05T17:58:35.402Z,28.60
2018-06-05T18:01:08.799Z,28.50
2018-06-05T18:03:42.419Z,28.60
2018-06-05T18:06:14.223Z,28.40
2018-06-05T18:08:41.237Z,28.20
2018-06-05T18:11:10.817Z,28.20
2018-06-05T18:13:38.284Z,28.20
2018-06-05T18:16:07.976Z,28.10
2018-06-05T18:18:43.548Z,28.10
2018-06-05T18:21:13.840Z,28.00
2018-06-05T18:23:41.252Z,27.90
2018-06-05T18:26:09.305Z,27.70
2018-06-05T18:28:37.203Z,27.70
2018-06-05T18:31:09.321Z,27.40
2018-06-05T18:33:36.573Z,27.40
2018-06-05T18:36:04.034Z,27.40
2018-06-05T18:38:30.921Z,27.20
2018-06-05T18:40:59.700Z,27.20
2018-06-05T18:43:29.783Z,27.10
2018-06-05T18:45:57.429Z,27.00
2018-06-05T18:48:24.418Z,27.00
2018-06-05T18:50:51.349Z,27.00
2018-06-05T18:53:18.274Z,26.80
2018-06-05T18:55:45.949Z,26.80
2018-06-05T18:58:14.205Z,26.70
2018-06-05T19:00:41.215Z,26.60
2018-06-05T19:03:08.247Z,26.60
2018-06-05T19:05:36.153Z,26.40
2018-06-05T19:08:03.093Z,26.50
2018-06-05T19:10:30.014Z,26.40
2018-06-05T19:12:57.708Z,26.10
2018-06-05T19:15:24.723Z,26.10
2018-06-05T19:17:51.704Z,26.10
2018-06-05T19:20:18.607Z,26.00
2018-06-05T19:22:45.610Z,26.00
2018-06-05T19:25:12.620Z,25.90
2018-06-05T19:27:40.445Z,25.60
2018-06-05T19:30:07.486Z,25.60
2018-06-05T19:32:34.627Z,25.60
2018-06-05T19:35:01.611Z,25.50
2018-06-05T19:37:29.464Z,25.40
2018-06-05T19:39:56.707Z,25.40
2018-06-05T19:42:24.736Z,25.20
2018-06-05T19:44:51.908Z,25.20
2018-06-05T19:47:19.179Z,25.20
2018-06-05T19:49:46.510Z,25.10
2018-06-05T19:52:13.471Z,25.10
2018-06-05T19:54:40.450Z,24.90
2018-06-05T19:57:08.242Z,24.90
2018-06-05T19:59:36.251Z,24.80
2018-06-05T20:02:03.339Z,24.80
2018-06-05T20:04:30.612Z,24.70
2018-06-05T20:06:58.381Z,24.60
2018-06-05T20:09:25.389Z,24.70
2018-06-05T20:11:52.458Z,24.60
2018-06-05T20:14:19.554Z,24.60
2018-06-05T20:16:46.568Z,24.40
2018-06-05T20:19:13.538Z,24.40
2018-06-05T20:21:41.281Z,24.40
2018-06-05T20:24:08.241Z,24.40
2018-06-05T20:26:35.937Z,24.20
2018-06-05T20:29:03.998Z,24.20
2018-06-05T20:31:31.419Z,24.20
2018-06-05T20:33:58.604Z,24.10
2018-06-05T20:36:25.507Z,24.00
2018-06-05T20:38:59.291Z,24.00
2018-06-05T20:41:26.677Z,23.90
2018-06-05T20:43:53.566Z,23.70
2018-06-05T20:46:20.793Z,23.70
2018-06-05T20:48:47.717Z,23.60
2018-06-05T20:51:14.593Z,23.60
2018-06-05T20:53:52.362Z,23.50
2018-06-05T20:56:20.209Z,23.40
2018-06-05T20:58:47.213Z,23.40
2018-06-05T21:01:14.170Z,23.30
2018-06-05T21:03:41.041Z,23.30
2018-06-05T21:06:14.634Z,23.20
2018-06-05T21:08:41.541Z,23.20
2018-06-05T21:11:09.270Z,23.00
2018-06-05T21:13:40.592Z,23.00
2018-06-05T21:16:07.513Z,23.00
2018-06-05T21:18:34.709Z,23.00
2018-06-05T21:21:02.378Z,22.90
2018-06-05T21:23:29.438Z,22.90
2018-06-05T21:25:57.068Z,22.70
2018-06-05T21:28:24.070Z,22.70
2018-06-05T21:31:06.731Z,22.60
2018-06-05T21:33:42.123Z,22.60
2018-06-05T21:36:09.151Z,22.60
2018-06-05T21:38:36.262Z,22.40
2018-06-05T21:41:15.957Z,22.40
2018-06-05T21:43:49.576Z,22.40
2018-06-05T21:46:17.107Z,22.30
2018-06-05T21:48:57.117Z,22.20
2018-06-05T21:51:38.302Z,22.20
2018-06-05T21:54:06.200Z,22.30
2018-06-05T21:56:38.576Z,22.20
2018-06-05T21:59:15.796Z,22.20
2018-06-05T22:01:42.968Z,22.10
2018-06-05T22:04:11.813Z,22.10
2018-06-05T22:06:42.771Z,21.90
2018-06-05T22:09:09.985Z,21.90
2018-06-05T22:11:43.019Z,21.90
2018-06-05T22:14:12.308Z,21.80
2018-06-05T22:16:39.933Z,21.80
2018-06-05T22:19:06.828Z,21.80
2018-06-05T22:21:34.779Z,21.80
2018-06-05T22:24:02.404Z,21.80
2018-06-05T22:26:29.445Z,21.80
2018-06-05T22:28:56.357Z,21.80
2018-06-05T22:31:23.330Z,21.70
2018-06-05T22:33:50.279Z,21.60
2018-06-05T22:36:17.228Z,21.50
2018-06-05T22:38:44.336Z,21.50
2018-06-05T22:41:12.004Z,21.50
2018-06-05T22:43:39.693Z,21.50
2018-06-05T22:46:06.595Z,21.50
2018-06-05T22:48:34.361Z,21.50
2018-06-05T22:51:02.195Z,21.40
2018-06-05T22:53:29.121Z,21.40
2018-06-05T22:55:56.230Z,21.40
2018-06-05T22:58:23.148Z,21.40
2018-06-05T23:00:50.100Z,21.30
2018-06-05T23:03:16.969Z,21.40
2018-06-05T23:05:44.820Z,21.30
2018-06-05T23:08:12.528Z,21.30
2018-06-05T23:10:39.501Z,21.30
2018-06-05T23:13:06.387Z,21.20
2018-06-05T23:15:34.092Z,21.10
2018-06-05T23:18:00.973Z,21.10
2018-06-05T23:20:27.917Z,21.10
2018-06-05T23:22:54.906Z,21.10
2018-06-05T23:25:22.607Z,21.00
2018-06-05T23:27:49.643Z,20.90
2018-06-05T23:30:16.562Z,21.00
2018-06-05T23:32:43.501Z,20.90
2018-06-05T23:35:11.194Z,20.80
2018-06-05T23:37:38.131Z,20.80
2018-06-05T23:40:05.152Z,20.80
2018-06-05T23:42:32.105Z,20.90
2018-06-05T23:44:59.061Z,20.80
2018-06-05T23:47:26.042Z,20.80
2018-06-05T23:49:52.929Z,20.80
2018-06-05T23:52:19.817Z,20.80
2018-06-05T23:54:46.745Z,20.70
2018-06-05T23:57:13.630Z,20.80
2018-06-05T23:59:40.596Z,20.60
